createdAt,value
2018-12-29T00:03:48.358Z,65.80
2018-12-29T00:10:32.029Z,65.70
2018-12-29T00:17:15.559Z,65.30
2018-12-29T00:23:59.058Z,65.40
2018-12-29T00:30:42.586Z,65.20
2018-12-29T00:37:26.106Z,65.20
2018-12-29T00:44:09.598Z,64.80
2018-12-29T00:50:53.088Z,64.80
2018-12-29T00:57:36.581Z,64.90
2018-12-29T01:04:20.817Z,64.50
2018-12-29T01:11:04.363Z,64.50
2018-12-29T01:17:47.842Z,64.40
2018-12-29T01:24:31.337Z,64.40
2018-12-29T01:31:14.826Z,63.80
2018-12-29T01:37:58.293Z,63.80
2018-12-29T01:44:41.770Z,64.30
2018-12-29T01:51:25.238Z,64.00
2018-12-29T01:58:08.697Z,63.30
2018-12-29T02:04:52.133Z,63.30
2018-12-29T02:11:35.578Z,63.30
2018-12-29T02:18:19.043Z,63.20
2018-12-29T02:25:02.567Z,63.00
2018-12-29T02:31:46.029Z,63.00
2018-12-29T02:38:29.501Z,62.90
2018-12-29T02:45:12.970Z,62.60
2018-12-29T02:51:56.429Z,63.20
2018-12-29T02:58:39.910Z,63.40
2018-12-29T03:05:23.394Z,62.80
2018-12-29T03:12:06.917Z,62.90
2018-12-29T03:18:50.450Z,62.80
2018-12-29T03:25:33.929Z,62.90
2018-12-29T03:32:17.443Z,62.70
2018-12-29T03:39:00.921Z,62.80
2018-12-29T03:45:49.060Z,62.60
2018-12-29T03:52:27.979Z,62.40
2018-12-29T03:59:11.451Z,62.20
2018-12-29T04:05:54.960Z,62.20
2018-12-29T04:12:40.573Z,62.10
2018-12-29T04:19:24.055Z,62.20
2018-12-29T04:26:08.838Z,62.00
2018-12-29T04:32:52.321Z,62.00
2018-12-29T04:39:35.809Z,62.00
2018-12-29T04:46:20.076Z,62.60
2018-12-29T04:53:03.626Z,62.90
2018-12-29T04:59:47.133Z,63.10
2018-12-29T05:06:30.662Z,63.40
2018-12-29T05:13:14.254Z,63.60
2018-12-29T05:19:57.785Z,63.50
2018-12-29T05:26:41.269Z,63.20
2018-12-29T05:33:24.974Z,63.00
2018-12-29T05:40:08.438Z,63.70
2018-12-29T05:46:51.947Z,63.80
2018-12-29T05:53:35.422Z,63.60
2018-12-29T06:00:18.876Z,63.20
2018-12-29T06:07:02.330Z,63.30
2018-12-29T06:13:45.820Z,63.70
2018-12-29T06:20:29.326Z,63.50
2018-12-29T06:27:12.793Z,64.00
2018-12-29T06:33:56.251Z,64.10
2018-12-29T06:40:39.710Z,63.80
2018-12-29T06:47:23.200Z,63.80
2018-12-29T06:54:06.647Z,64.40
2018-12-29T07:00:50.106Z,64.40
2018-12-29T07:07:33.616Z,64.40
2018-12-29T07:14:17.881Z,64.70
2018-12-29T07:21:01.393Z,64.20
2018-12-29T07:27:44.886Z,63.70
2018-12-29T07:34:28.371Z,64.00
2018-12-29T07:41:11.890Z,64.20
2018-12-29T07:47:55.414Z,63.90
2018-12-29T07:54:38.973Z,64.60
2018-12-29T08:01:22.619Z,64.90
2018-12-29T08:08:06.129Z,64.40
2018-12-29T08:14:49.698Z,65.10
2018-12-29T08:21:33.226Z,64.40
2018-12-29T08:28:16.781Z,64.60
2018-12-29T08:35:00.298Z,64.40
2018-12-29T08:41:43.813Z,64.30
2018-12-29T08:48:27.365Z,63.50
2018-12-29T08:55:10.938Z,61.20
2018-12-29T09:01:55.525Z,60.40
2018-12-29T09:08:39.072Z,60.40
2018-12-29T09:15:22.722Z,60.60
2018-12-29T09:22:06.260Z,60.70
2018-12-29T09:28:49.743Z,59.80
2018-12-29T09:35:33.219Z,58.80
2018-12-29T09:42:16.680Z,56.80
2018-12-29T09:49:00.190Z,54.30
2018-12-29T09:55:43.674Z,53.10
2018-12-29T10:02:27.198Z,53.20
2018-12-29T10:09:10.655Z,52.50
2018-12-29T10:15:54.150Z,53.80
2018-12-29T10:22:37.606Z,54.80
2018-12-29T10:29:21.092Z,57.50
2018-12-29T10:36:04.573Z,60.30
2018-12-29T10:42:48.022Z,60.40
2018-12-29T10:49:34.486Z,60.80
2018-12-29T10:56:17.934Z,61.50
2018-12-29T11:03:01.391Z,61.80
2018-12-29T11:09:44.838Z,61.20
2018-12-29T11:16:30.532Z,61.40
2018-12-29T11:23:13.975Z,61.10
2018-12-29T11:29:57.425Z,60.20
2018-12-29T11:36:40.865Z,59.40
2018-12-29T11:43:24.296Z,58.40
2018-12-29T11:50:07.769Z,58.70
2018-12-29T11:56:51.215Z,56.70
2018-12-29T12:03:34.685Z,57.70
2018-12-29T12:10:18.140Z,58.50
2018-12-29T12:17:01.598Z,58.60
2018-12-29T12:23:45.025Z,57.40
2018-12-29T12:30:28.457Z,57.10
2018-12-29T12:37:11.897Z,57.80
2018-12-29T12:43:55.700Z,55.90
2018-12-29T12:50:39.151Z,56.20
2018-12-29T12:57:22.610Z,56.90
2018-12-29T13:04:06.106Z,56.40
2018-12-29T13:10:49.549Z,57.50
2018-12-29T13:17:33.002Z,57.10
2018-12-29T13:24:16.444Z,57.60
2018-12-29T13:30:59.891Z,57.20
2018-12-29T13:37:43.345Z,57.20
2018-12-29T13:44:26.782Z,56.90
2018-12-29T13:51:10.225Z,57.60
2018-12-29T13:57:53.675Z,58.30
2018-12-29T14:04:37.146Z,58.80
2018-12-29T14:11:20.582Z,58.50
2018-12-29T14:18:04.053Z,58.70
2018-12-29T14:24:47.497Z,59.00
2018-12-29T14:31:30.941Z,59.00
2018-12-29T14:38:14.420Z,59.30
2018-12-29T14:44:57.861Z,58.70
2018-12-29T14:51:41.322Z,59.30
2018-12-29T14:58:24.761Z,58.50
2018-12-29T15:05:08.310Z,58.60
2018-12-29T15:11:51.931Z,58.70
2018-12-29T15:18:35.429Z,58.40
2018-12-29T15:25:18.893Z,60.00
2018-12-29T15:32:02.349Z,60.10
2018-12-29T15:38:45.825Z,59.50
2018-12-29T15:45:29.274Z,60.40
2018-12-29T15:52:12.725Z,60.20
2018-12-29T15:58:56.200Z,60.30
2018-12-29T16:05:39.917Z,60.70
2018-12-29T16:12:23.357Z,61.00
2018-12-29T16:19:06.798Z,62.40
2018-12-29T16:25:50.291Z,62.90
2018-12-29T16:32:33.733Z,63.00
2018-12-29T16:39:17.174Z,63.00
2018-12-29T16:46:00.626Z,63.90
2018-12-29T16:52:44.107Z,64.60
2018-12-29T16:59:27.668Z,64.50
2018-12-29T17:06:11.183Z,65.40
2018-12-29T17:12:54.658Z,65.70
2018-12-29T17:19:38.135Z,66.20
2018-12-29T17:26:21.591Z,66.20
2018-12-29T17:33:05.046Z,66.10
2018-12-29T17:39:48.605Z,66.50
2018-12-29T17:46:32.094Z,66.20
2018-12-29T17:53:15.538Z,66.80
2018-12-29T17:59:59.248Z,66.80
2018-12-29T18:06:42.694Z,66.60
2018-12-29T18:13:26.193Z,66.90
2018-12-29T18:20:09.669Z,65.90
2018-12-29T18:26:53.137Z,65.90
2018-12-29T18:33:37.399Z,66.10
2018-12-29T18:40:20.092Z,66.30
2018-12-29T18:47:03.566Z,66.00
2018-12-29T18:53:47.050Z,65.40
2018-12-29T19:00:30.504Z,65.70
2018-12-29T19:07:13.953Z,65.80
2018-12-29T19:13:57.526Z,65.30
2018-12-29T19:20:40.977Z,65.00
2018-12-29T19:27:24.448Z,64.20
2018-12-29T19:34:07.898Z,62.80
2018-12-29T19:40:51.374Z,61.90
2018-12-29T19:47:34.845Z,61.60
2018-12-29T19:54:18.290Z,61.10
2018-12-29T20:01:01.809Z,60.60
2018-12-29T20:07:45.218Z,60.90
2018-12-29T20:14:28.703Z,61.40
2018-12-29T20:21:12.156Z,62.00
2018-12-29T20:27:55.601Z,63.50
2018-12-29T20:34:39.063Z,63.50
2018-12-29T20:41:22.495Z,64.40
2018-12-29T20:48:05.950Z,66.10
2018-12-29T20:54:49.393Z,66.80
2018-12-29T21:01:32.837Z,67.50
2018-12-29T21:08:16.305Z,67.20
2018-12-29T21:14:59.768Z,67.50
2018-12-29T21:21:43.262Z,66.90
2018-12-29T21:28:26.722Z,65.00
2018-12-29T21:35:10.165Z,65.00
2018-12-29T21:41:53.628Z,65.40
2018-12-29T21:48:37.097Z,66.10
2018-12-29T21:55:20.533Z,67.40
2018-12-29T22:02:04.081Z,68.00
2018-12-29T22:08:47.549Z,68.30
2018-12-29T22:15:31.019Z,69.90
2018-12-29T22:22:14.488Z,71.60
2018-12-29T22:28:57.953Z,71.90
2018-12-29T22:35:41.389Z,72.30
2018-12-29T22:42:24.849Z,72.70
2018-12-29T22:49:08.308Z,73.10
2018-12-29T22:55:51.758Z,72.50
2018-12-29T23:02:35.270Z,72.90
2018-12-29T23:09:18.713Z,70.60
2018-12-29T23:16:02.157Z,69.10
2018-12-29T23:22:45.602Z,67.40
2018-12-29T23:29:29.050Z,66.60
2018-12-29T23:36:12.522Z,65.30
2018-12-29T23:42:55.957Z,64.70
2018-12-29T23:49:39.390Z,64.80
2018-12-29T23:56:22.865Z,65.00
